createdAt,value
2023-02-12T00:00:12.784Z,9.60
2023-02-12T00:02:57.913Z,10.20
2023-02-12T00:05:42.668Z,10.35
2023-02-12T00:08:28.265Z,11.40
2023-02-12T00:11:18.924Z,10.70
2023-02-12T00:14:05.602Z,11.57
2023-02-12T00:16:50.944Z,11.20
2023-02-12T00:19:36.431Z,11.77
2023-02-12T00:22:21.678Z,11.60
2023-02-12T00:25:07.446Z,11.50
2023-02-12T00:27:52.435Z,10.77
2023-02-12T00:30:37.729Z,11.23
2023-02-12T00:33:23.152Z,10.65
2023-02-12T00:36:09.678Z,11.13
2023-02-12T00:38:56.218Z,12.35
2023-02-12T00:41:41.367Z,12.30
2023-02-12T00:44:26.599Z,12.48
2023-02-12T00:47:11.543Z,12.10
2023-02-12T00:49:56.470Z,12.50
2023-02-12T00:52:41.491Z,12.13
2023-02-12T00:55:26.660Z,12.18
2023-02-12T00:58:11.913Z,11.52
2023-02-12T01:00:57.067Z,12.50
2023-02-12T01:03:42.099Z,12.32
2023-02-12T01:06:27.363Z,11.98
2023-02-12T01:09:13.294Z,11.77
2023-02-12T01:11:58.280Z,12.50
2023-02-12T01:14:43.163Z,12.02
2023-02-12T01:17:28.294Z,12.00
2023-02-12T01:20:17.634Z,11.75
2023-02-12T01:23:02.700Z,11.75
2023-02-12T01:25:47.878Z,11.45
2023-02-12T01:28:33.869Z,12.38
2023-02-12T01:31:23.406Z,12.07
2023-02-12T01:34:11.207Z,12.32
2023-02-12T01:36:56.220Z,13.18
2023-02-12T01:39:41.205Z,12.05
2023-02-12T01:42:27.339Z,12.00
2023-02-12T01:45:12.413Z,10.98
2023-02-12T01:48:00.412Z,11.50
2023-02-12T01:50:47.510Z,12.77
2023-02-12T01:53:40.848Z,12.35
2023-02-12T01:56:26.045Z,12.07
2023-02-12T01:59:12.230Z,11.73
2023-02-12T02:01:57.863Z,12.50
2023-02-12T02:04:53.835Z,12.05
2023-02-12T02:07:40.511Z,12.15
2023-02-12T02:10:25.547Z,13.40
2023-02-12T02:13:30.004Z,13.40
2023-02-12T02:16:23.091Z,13.75
2023-02-12T02:19:30.458Z,15.00
2023-02-12T02:22:37.886Z,14.77
2023-02-12T02:25:28.974Z,14.73
2023-02-12T02:28:33.492Z,14.73
2023-02-12T02:31:26.472Z,13.10
2023-02-12T02:34:19.067Z,14.32
2023-02-12T02:37:35.080Z,13.48
2023-02-12T02:40:30.771Z,13.48
2023-02-12T02:43:20.298Z,14.63
2023-02-12T02:46:11.271Z,14.45
2023-02-12T02:49:03.909Z,14.50
2023-02-12T02:51:55.628Z,16.83
2023-02-12T02:54:47.438Z,17.45
2023-02-12T02:57:41.472Z,17.73
2023-02-12T03:00:55.698Z,18.73
2023-02-12T03:03:40.783Z,18.50
2023-02-12T03:06:35.894Z,17.92
2023-02-12T03:09:32.399Z,18.98
2023-02-12T03:12:24.088Z,19.25
2023-02-12T03:15:20.007Z,18.42
2023-02-12T03:18:10.814Z,18.95
2023-02-12T03:21:01.255Z,20.63
2023-02-12T03:24:15.201Z,20.05
2023-02-12T03:27:07.501Z,19.13
2023-02-12T03:29:53.026Z,19.58
2023-02-12T03:32:50.267Z,18.92
2023-02-12T03:36:03.302Z,19.45
2023-02-12T03:38:58.050Z,19.10
2023-02-12T03:42:00.655Z,19.08
2023-02-12T03:45:30.269Z,17.98
2023-02-12T03:48:35.374Z,18.88
2023-02-12T03:51:38.603Z,19.05
2023-02-12T03:54:24.415Z,19.70
2023-02-12T03:57:16.421Z,19.27
2023-02-12T04:00:08.968Z,19.42
2023-02-12T04:02:55.014Z,19.08
2023-02-12T04:05:40.105Z,19.77
2023-02-12T04:08:27.161Z,20.08
2023-02-12T04:11:37.340Z,18.73
2023-02-12T04:17:30.447Z,19.40
2023-02-12T04:20:30.756Z,19.25
2023-02-12T04:23:40.794Z,19.30
2023-02-12T04:26:37.232Z,18.40
2023-02-12T04:29:27.384Z,19.05
2023-02-12T04:32:19.523Z,17.92
2023-02-12T04:35:15.881Z,19.73
2023-02-12T04:38:08.606Z,19.33
2023-02-12T04:40:53.860Z,20.30
2023-02-12T04:43:38.925Z,20.15
2023-02-12T04:46:24.226Z,18.52
2023-02-12T04:49:15.211Z,19.33
2023-02-12T04:52:00.538Z,19.88
2023-02-12T04:54:45.891Z,19.85
2023-02-12T04:57:31.120Z,19.45
2023-02-12T05:00:16.692Z,19.80
2023-02-12T05:03:01.996Z,19.88
2023-02-12T05:05:47.377Z,20.40
2023-02-12T05:08:32.540Z,19.92
2023-02-12T05:11:17.596Z,19.08
2023-02-12T05:14:02.385Z,19.35
2023-02-12T05:16:47.364Z,18.27
2023-02-12T05:19:32.478Z,18.15
2023-02-12T05:22:17.887Z,17.77
2023-02-12T05:25:03.562Z,18.38
2023-02-12T05:27:48.623Z,17.55
2023-02-12T05:30:33.636Z,16.83
2023-02-12T05:33:18.651Z,17.42
2023-02-12T05:36:09.320Z,17.25
2023-02-12T05:38:58.364Z,17.77
2023-02-12T05:41:43.405Z,17.58
2023-02-12T05:44:28.505Z,18.30
2023-02-12T05:47:13.771Z,18.63
2023-02-12T05:49:58.606Z,18.38
2023-02-12T05:52:43.786Z,18.77
2023-02-12T05:55:29.036Z,18.88
2023-02-12T05:58:16.032Z,17.60
2023-02-12T06:01:01.300Z,18.63
2023-02-12T06:03:46.581Z,18.60
2023-02-12T06:06:32.849Z,19.52
2023-02-12T06:09:18.363Z,18.55
2023-02-12T06:12:03.910Z,18.55
2023-02-12T06:14:49.083Z,19.05
2023-02-12T06:17:34.771Z,19.45
2023-02-12T06:20:19.768Z,18.33
2023-02-12T06:23:04.816Z,18.40
2023-02-12T06:25:51.480Z,18.05
2023-02-12T06:28:36.876Z,17.48
2023-02-12T06:31:30.432Z,18.75
2023-02-12T06:34:18.007Z,18.42
2023-02-12T06:37:03.036Z,17.98
2023-02-12T06:39:48.205Z,17.40
2023-02-12T06:42:33.268Z,17.70
2023-02-12T06:45:18.673Z,17.73
2023-02-12T06:48:03.864Z,17.58
2023-02-12T06:50:49.128Z,18.83
2023-02-12T06:53:35.104Z,17.60
2023-02-12T06:56:22.174Z,17.17
2023-02-12T06:59:07.403Z,17.67
2023-02-12T07:01:52.408Z,17.58
2023-02-12T07:04:40.669Z,16.50
2023-02-12T07:07:25.990Z,16.48
2023-02-12T07:10:11.324Z,17.67
2023-02-12T07:12:56.618Z,16.85
2023-02-12T07:15:41.697Z,16.35
2023-02-12T07:18:26.863Z,17.42
2023-02-12T07:21:14.490Z,18.10
2023-02-12T07:23:59.705Z,18.80
2023-02-12T07:26:44.962Z,17.58
2023-02-12T07:29:30.352Z,17.67
2023-02-12T07:32:15.790Z,17.05
2023-02-12T07:35:01.175Z,17.77
2023-02-12T07:37:46.393Z,18.45
2023-02-12T07:40:31.579Z,17.60
2023-02-12T07:43:16.498Z,18.25
2023-02-12T07:46:11.900Z,18.27
2023-02-12T07:48:59.265Z,17.80
2023-02-12T07:51:44.988Z,17.92
2023-02-12T07:54:30.466Z,17.63
2023-02-12T07:57:15.376Z,17.45
2023-02-12T08:00:00.566Z,17.90
2023-02-12T08:02:51.781Z,18.02
2023-02-12T08:05:36.836Z,18.08
2023-02-12T08:08:22.120Z,17.38
2023-02-12T08:11:09.199Z,18.20
2023-02-12T08:13:55.150Z,18.13
2023-02-12T08:16:41.653Z,18.20
2023-02-12T08:19:27.030Z,18.48
2023-02-12T08:22:13.094Z,17.63
2023-02-12T08:24:58.455Z,18.38
2023-02-12T08:27:43.521Z,16.92
2023-02-12T08:30:28.494Z,17.52
2023-02-12T08:33:13.374Z,18.55
2023-02-12T08:36:03.393Z,18.33
2023-02-12T08:38:49.007Z,19.10
2023-02-12T08:41:35.143Z,18.52
2023-02-12T08:44:20.038Z,19.55
2023-02-12T08:47:06.747Z,18.92
2023-02-12T08:49:51.675Z,18.48
2023-02-12T08:52:36.680Z,17.55
2023-02-12T08:55:21.684Z,17.83
2023-02-12T08:58:06.805Z,18.77
2023-02-12T09:00:52.102Z,18.20
2023-02-12T09:03:37.320Z,19.10
2023-02-12T09:06:24.861Z,18.70
2023-02-12T09:09:10.200Z,18.63
2023-02-12T09:11:55.501Z,18.20
2023-02-12T09:14:40.555Z,18.17
2023-02-12T09:17:27.496Z,18.27
2023-02-12T09:20:12.849Z,16.65
2023-02-12T09:22:59.138Z,17.52
2023-02-12T09:25:46.012Z,16.92
2023-02-12T09:28:31.646Z,15.87
2023-02-12T09:31:23.018Z,16.00
2023-02-12T09:34:08.381Z,17.50
2023-02-12T09:36:53.477Z,17.40
2023-02-12T09:39:38.560Z,17.25
2023-02-12T09:42:34.408Z,17.30
2023-02-12T09:45:35.295Z,16.75
2023-02-12T09:48:48.021Z,15.98
2023-02-12T09:51:33.450Z,16.63
2023-02-12T09:54:22.061Z,17.45
2023-02-12T09:57:18.255Z,17.70
2023-02-12T10:00:11.083Z,17.10
2023-02-12T10:02:56.855Z,17.70
2023-02-12T10:05:48.790Z,16.00
2023-02-12T10:08:48.807Z,15.10
2023-02-12T10:12:01.660Z,14.75
2023-02-12T10:15:35.030Z,15.52
2023-02-12T10:18:23.007Z,16.70
2023-02-12T10:21:07.901Z,13.70
2023-02-12T10:24:06.236Z,16.63
2023-02-12T10:26:58.079Z,16.30
2023-02-12T10:29:45.807Z,15.18
2023-02-12T10:32:35.487Z,14.85
2023-02-12T10:35:22.854Z,14.65
2023-02-12T10:38:17.543Z,15.68
2023-02-12T10:41:02.825Z,14.77
2023-02-12T10:43:48.020Z,14.68
2023-02-12T10:46:33.172Z,15.25
2023-02-12T10:49:19.844Z,14.15
2023-02-12T10:52:11.536Z,13.80
2023-02-12T10:54:56.609Z,13.52
2023-02-12T10:57:41.884Z,14.70
2023-02-12T11:00:36.663Z,14.00
2023-02-12T11:03:23.713Z,14.25
2023-02-12T11:06:13.576Z,14.57
2023-02-12T11:11:44.501Z,12.90
2023-02-12T11:14:30.820Z,13.70
2023-02-12T11:17:40.180Z,13.38
2023-02-12T11:20:28.492Z,12.55
2023-02-12T11:23:37.983Z,13.25
2023-02-12T11:26:29.170Z,13.13
2023-02-12T11:29:24.461Z,12.27
2023-02-12T11:32:16.670Z,12.70
2023-02-12T11:35:13.614Z,12.32
2023-02-12T11:37:59.542Z,11.15
2023-02-12T11:40:47.528Z,11.98
2023-02-12T11:43:37.166Z,12.93
2023-02-12T11:46:25.740Z,12.15
2023-02-12T11:49:21.353Z,13.10
2023-02-12T11:52:07.136Z,12.85
2023-02-12T11:54:57.300Z,12.60
2023-02-12T11:57:48.141Z,12.15
2023-02-12T12:00:42.999Z,12.57
2023-02-12T12:03:44.356Z,12.07
2023-02-12T12:06:44.274Z,11.55
2023-02-12T12:09:47.451Z,10.98
2023-02-12T12:12:44.029Z,11.88
2023-02-12T12:15:52.979Z,11.27
2023-02-12T12:19:07.504Z,11.37
2023-02-12T12:22:20.872Z,11.60
2023-02-12T12:25:30.597Z,10.75
2023-02-12T12:31:38.736Z,11.05
2023-02-12T12:34:26.061Z,11.02
2023-02-12T12:37:23.154Z,10.18
2023-02-12T12:40:08.150Z,10.52
2023-02-12T12:43:32.747Z,10.55
2023-02-12T12:46:39.729Z,9.52
2023-02-12T12:49:35.371Z,10.60
2023-02-12T12:52:47.842Z,9.38
2023-02-12T12:55:48.872Z,9.90
2023-02-12T12:58:39.771Z,9.13
2023-02-12T13:01:43.083Z,10.88
2023-02-12T13:04:43.210Z,11.63
2023-02-12T13:07:53.281Z,11.52
2023-02-12T13:10:50.279Z,12.38
2023-02-12T13:13:46.153Z,11.18
2023-02-12T13:16:41.714Z,9.95
2023-02-12T13:19:55.861Z,8.82
2023-02-12T13:22:51.512Z,7.50
2023-02-12T13:25:55.895Z,6.45
2023-02-12T13:28:47.022Z,5.03
2023-02-12T13:31:50.260Z,5.15
2023-02-12T13:34:37.015Z,5.75
2023-02-12T13:37:31.201Z,5.43
2023-02-12T13:40:19.466Z,4.78
2023-02-12T13:43:14.762Z,3.83
2023-02-12T13:46:25.243Z,3.33
2023-02-12T13:49:16.714Z,3.30
2023-02-12T13:52:11.397Z,3.83
2023-02-12T13:55:14.699Z,3.85
2023-02-12T13:58:39.960Z,2.80
2023-02-12T14:01:46.899Z,3.20
2023-02-12T14:04:37.687Z,2.80
2023-02-12T14:10:09.265Z,3.22
2023-02-12T14:12:59.771Z,2.72
2023-02-12T14:15:52.870Z,2.72
2023-02-12T14:18:38.485Z,2.83
2023-02-12T14:21:29.873Z,3.10
2023-02-12T14:24:48.565Z,4.00
2023-02-12T14:27:42.150Z,3.78
2023-02-12T14:30:27.124Z,4.22
2023-02-12T14:33:25.067Z,4.47
2023-02-12T14:36:33.236Z,4.72
2023-02-12T14:39:24.322Z,4.22
2023-02-12T14:42:09.242Z,4.00
2023-02-12T14:44:57.931Z,3.42
2023-02-12T14:47:44.377Z,3.35
2023-02-12T14:50:37.314Z,2.78
2023-02-12T14:53:34.772Z,5.72
2023-02-12T14:56:23.003Z,4.32
2023-02-12T14:59:17.829Z,3.67
2023-02-12T15:02:05.169Z,3.60
2023-02-12T15:04:53.031Z,3.65
2023-02-12T15:07:46.400Z,2.83
2023-02-12T15:10:41.196Z,3.40
2023-02-12T15:13:39.008Z,3.80
2023-02-12T15:16:33.478Z,3.38
2023-02-12T15:19:34.373Z,8.68
2023-02-12T15:22:19.481Z,3.13
2023-02-12T15:25:26.276Z,39.85
2023-02-12T15:28:21.529Z,9.23
2023-02-12T15:31:10.512Z,23.08
2023-02-12T15:33:57.951Z,6.25
2023-02-12T15:36:45.924Z,14.55
2023-02-12T15:39:40.583Z,10.57
2023-02-12T15:42:34.991Z,7.47
2023-02-12T15:45:23.857Z,7.47
2023-02-12T15:48:20.776Z,5.88
2023-02-12T15:51:18.041Z,7.35
2023-02-12T15:54:06.780Z,6.20
2023-02-12T15:56:53.680Z,5.87
2023-02-12T15:59:40.226Z,6.30
2023-02-12T16:02:28.380Z,6.50
2023-02-12T16:05:16.662Z,6.88
2023-02-12T16:08:02.448Z,6.88
2023-02-12T16:10:51.725Z,6.20
2023-02-12T16:13:37.047Z,6.97
2023-02-12T16:16:25.857Z,6.80
2023-02-12T16:19:25.087Z,6.63
2023-02-12T16:22:16.645Z,6.57
2023-02-12T16:25:03.226Z,6.80
2023-02-12T16:28:08.139Z,6.88
2023-02-12T16:30:53.526Z,6.45
2023-02-12T16:33:52.654Z,6.57
2023-02-12T16:39:53.685Z,6.03
2023-02-12T16:42:39.858Z,6.28
2023-02-12T16:45:25.137Z,6.45
2023-02-12T16:48:24.431Z,5.50
2023-02-12T16:51:29.550Z,5.90
2023-02-12T16:54:33.172Z,6.43
2023-02-12T16:57:18.074Z,6.95
2023-02-12T17:00:08.301Z,4.05
2023-02-12T17:02:57.148Z,4.38
2023-02-12T17:05:45.044Z,4.03
2023-02-12T17:08:30.342Z,4.38
2023-02-12T17:11:17.681Z,4.80
2023-02-12T17:14:02.717Z,5.95
2023-02-12T17:16:48.453Z,5.53
2023-02-12T17:19:33.940Z,6.00
2023-02-12T17:22:24.803Z,6.43
2023-02-12T17:25:11.933Z,6.55
2023-02-12T17:27:57.482Z,6.80
2023-02-12T17:30:42.540Z,6.82
2023-02-12T17:33:27.649Z,7.43
2023-02-12T17:36:12.816Z,6.88
2023-02-12T17:38:57.924Z,8.13
2023-02-12T17:41:44.250Z,8.07
2023-02-12T17:44:29.201Z,7.55
2023-02-12T17:47:14.423Z,8.65
2023-02-12T17:50:02.443Z,8.25
2023-02-12T17:52:47.299Z,8.32
2023-02-12T17:55:33.462Z,10.68
2023-02-12T17:58:18.511Z,9.60
2023-02-12T18:01:08.146Z,9.85
2023-02-12T18:03:55.753Z,10.10
2023-02-12T18:06:41.315Z,13.05
2023-02-12T18:09:26.547Z,11.15
2023-02-12T18:12:11.634Z,11.23
2023-02-12T18:14:58.849Z,10.65
2023-02-12T18:17:44.045Z,10.43
2023-02-12T18:20:28.929Z,10.60
2023-02-12T18:23:14.257Z,9.23
2023-02-12T18:25:59.564Z,10.30
2023-02-12T18:28:45.679Z,11.65
2023-02-12T18:31:31.094Z,11.50
2023-02-12T18:34:16.285Z,12.02
2023-02-12T18:37:01.640Z,13.88
2023-02-12T18:39:46.669Z,11.55
2023-02-12T18:42:33.294Z,13.35
2023-02-12T18:45:19.418Z,13.32
2023-02-12T18:48:08.457Z,13.07
2023-02-12T18:50:55.426Z,16.38
2023-02-12T18:53:40.645Z,16.65
2023-02-12T18:56:25.733Z,14.43
2023-02-12T18:59:13.239Z,12.05
2023-02-12T19:01:58.416Z,12.43
2023-02-12T19:04:43.835Z,12.93
2023-02-12T19:07:29.086Z,12.98
2023-02-12T19:10:14.335Z,13.30
2023-02-12T19:12:59.313Z,14.65
2023-02-12T19:15:44.924Z,12.43
2023-02-12T19:18:30.029Z,11.75
2023-02-12T19:21:16.351Z,13.98
2023-02-12T19:24:03.868Z,12.95
2023-02-12T19:26:52.366Z,13.48
2023-02-12T19:29:37.255Z,14.25
2023-02-12T19:32:22.207Z,13.23
2023-02-12T19:35:07.228Z,12.77
2023-02-12T19:37:52.514Z,13.07
2023-02-12T19:40:37.695Z,14.23
2023-02-12T19:43:22.847Z,13.48
2023-02-12T19:46:15.107Z,13.10
2023-02-12T19:49:02.949Z,13.57
2023-02-12T19:51:48.718Z,13.35
2023-02-12T19:54:34.551Z,14.43
2023-02-12T19:57:19.726Z,14.20
2023-02-12T20:00:05.295Z,14.45
2023-02-12T20:02:50.393Z,15.15
2023-02-12T20:05:37.061Z,14.15
2023-02-12T20:08:22.323Z,14.02
2023-02-12T20:11:15.841Z,15.57
2023-02-12T20:14:01.917Z,14.48
2023-02-12T20:16:47.945Z,15.98
2023-02-12T20:19:33.158Z,16.13
2023-02-12T20:22:18.362Z,16.70
2023-02-12T20:25:03.524Z,15.88
2023-02-12T20:27:48.925Z,15.52
2023-02-12T20:30:34.215Z,15.77
2023-02-12T20:33:19.620Z,16.38
2023-02-12T20:36:05.221Z,14.98
2023-02-12T20:38:53.067Z,16.23
2023-02-12T20:41:38.240Z,16.30
2023-02-12T20:44:23.485Z,16.65
2023-02-12T20:47:08.833Z,17.35
2023-02-12T20:49:57.929Z,16.95
2023-02-12T20:52:43.497Z,16.23
2023-02-12T20:55:28.893Z,17.30
2023-02-12T20:58:13.820Z,17.42
2023-02-12T21:01:12.882Z,16.95
2023-02-12T21:04:02.848Z,16.55
2023-02-12T21:06:48.465Z,17.58
2023-02-12T21:09:33.775Z,17.63
2023-02-12T21:12:19.458Z,17.42
2023-02-12T21:15:04.948Z,17.23
2023-02-12T21:17:50.273Z,18.10
2023-02-12T21:20:36.265Z,18.60
2023-02-12T21:23:21.671Z,18.75
2023-02-12T21:26:09.698Z,18.58
2023-02-12T21:28:56.618Z,19.85
2023-02-12T21:31:46.792Z,19.27
2023-02-12T21:37:16.948Z,18.63
2023-02-12T21:40:01.970Z,19.63
2023-02-12T21:42:46.780Z,18.70
2023-02-12T21:45:31.651Z,19.83
2023-02-12T21:48:16.503Z,19.80
2023-02-12T21:51:02.609Z,19.30
2023-02-12T21:53:49.514Z,20.60
2023-02-12T21:56:37.276Z,21.13
2023-02-12T21:59:22.554Z,20.52
2023-02-12T22:02:09.655Z,20.40
2023-02-12T22:04:54.998Z,20.38
2023-02-12T22:07:39.937Z,21.30
2023-02-12T22:10:25.085Z,20.90
2023-02-12T22:13:10.296Z,21.40
2023-02-12T22:15:55.480Z,22.25
2023-02-12T22:18:42.111Z,21.45
2023-02-12T22:21:29.918Z,21.42
2023-02-12T22:24:16.161Z,22.67
2023-02-12T22:27:01.094Z,21.20
2023-02-12T22:29:46.116Z,22.92
2023-02-12T22:32:31.110Z,23.30
2023-02-12T22:35:16.779Z,22.08
2023-02-12T22:38:02.609Z,22.98
2023-02-12T22:40:52.621Z,22.10
2023-02-12T22:43:40.255Z,23.63
2023-02-12T22:46:25.731Z,22.30
2023-02-12T22:49:11.118Z,22.30
2023-02-12T22:51:56.573Z,23.00
2023-02-12T22:54:41.907Z,24.10
2023-02-12T22:57:27.131Z,23.23
2023-02-12T23:00:13.045Z,23.70
2023-02-12T23:02:57.870Z,24.42
2023-02-12T23:05:43.032Z,24.48
2023-02-12T23:08:28.822Z,24.55
2023-02-12T23:11:13.871Z,23.08
2023-02-12T23:13:59.747Z,20.73
2023-02-12T23:16:45.323Z,21.17
2023-02-12T23:19:30.510Z,20.67
2023-02-12T23:22:15.648Z,21.20
2023-02-12T23:25:00.956Z,20.63
2023-02-12T23:27:46.314Z,21.13
2023-02-12T23:30:31.692Z,20.60
2023-02-12T23:33:16.917Z,20.60
2023-02-12T23:36:02.054Z,20.42
2023-02-12T23:38:46.993Z,20.92
2023-02-12T23:41:32.128Z,22.13
2023-02-12T23:44:17.403Z,22.08
2023-02-12T23:47:02.713Z,22.48
2023-02-12T23:49:47.991Z,22.17
2023-02-12T23:52:33.323Z,21.20
2023-02-12T23:55:20.200Z,20.73
2023-02-12T23:58:06.600Z,20.63
